Time;durP1;ratioP1;P1;durP2;ratioP2;P2;SDS_P1;SDS_P2;PMS_P1;PMS_P2;Temp;Humidity;BMP_temperature;BMP_pressure;BME280_temperature;BME280_humidity;BME280_pressure;Samples;Min_cycle;Max_cycle;Signal;HPM_P1;HPM_P2
2024/02/05 00:03:51;;;;;;;5.00;2.23;;;;;;;7.96;100.00;98988.72;31247781;28;20440;-82
2024/02/05 00:18:53;;;;;;;4.97;2.53;;;;;;;7.73;100.00;98982.34;31251865;28;20108;-84
2024/02/05 00:33:55;;;;;;;4.07;2.27;;;;;;;7.72;100.00;98959.22;31277270;28;20064;-84
2024/02/05 00:48:59;;;;;;;4.23;2.10;;;;;;;7.67;100.00;98938.13;31288798;28;20036;-83
2024/02/05 01:04:02;;;;;;;4.70;2.47;;;;;;;7.52;100.00;98926.19;31271685;28;20531;-82
2024/02/05 01:19:05;;;;;;;6.97;2.87;;;;;;;7.32;100.00;98906.66;31285077;28;20156;-84
2024/02/05 01:34:07;;;;;;;7.60;2.93;;;;;;;7.31;100.00;98905.13;31273573;28;20110;-84
2024/02/05 01:49:12;;;;;;;5.47;2.97;;;;;;;7.18;100.00;98896.97;31268946;28;20094;-85
2024/02/05 02:04:14;;;;;;;2.67;2.47;;;;;;;7.06;100.00;98890.31;31273478;28;20045;-82
2024/02/05 02:19:26;;;;;;;5.53;2.50;;;;;;;7.35;100.00;98881.50;31258016;28;20136;-85
2024/02/05 02:34:32;;;;;;;5.47;2.60;;;;;;;7.64;100.00;98871.44;31261296;28;20457;-84
2024/02/05 02:49:34;;;;;;;4.33;2.40;;;;;;;7.45;100.00;98842.66;31271700;28;20068;-83
2024/02/05 03:04:36;;;;;;;5.50;3.27;;;;;;;7.06;100.00;98814.78;31294205;28;20049;-82
2024/02/05 03:19:38;;;;;;;5.80;3.70;;;;;;;7.25;100.00;98796.16;31264706;28;20069;-85
2024/02/05 03:34:40;;;;;;;9.10;2.40;;;;;;;7.16;100.00;98775.94;31289541;28;20124;-84
2024/02/05 03:49:43;;;;;;;4.83;1.87;;;;;;;7.19;100.00;98745.41;31264162;28;20054;-83
2024/02/05 04:04:45;;;;;;;6.33;2.70;;;;;;;7.02;100.00;98711.56;31287409;28;20056;-85
2024/02/05 04:19:47;;;;;;;3.77;2.30;;;;;;;7.05;100.00;98707.25;31284758;28;20410;-83
2024/02/05 04:34:49;;;;;;;4.83;2.30;;;;;;;7.16;100.00;98708.47;31268524;28;20087;-82
2024/02/05 04:49:52;;;;;;;3.23;2.37;;;;;;;7.12;100.00;98683.50;31276843;28;20046;-82
2024/02/05 05:04:55;;;;;;;6.27;2.67;;;;;;;7.57;100.00;98669.09;31263936;28;20053;-84
2024/02/05 05:19:57;;;;;;;6.67;2.60;;;;;;;7.68;100.00;98645.22;31259840;28;20113;-84
2024/02/05 05:34:59;;;;;;;9.03;3.23;;;;;;;7.69;100.00;98622.44;31276664;28;20053;-84
2024/02/05 05:50:01;;;;;;;5.73;3.23;;;;;;;7.63;100.00;98597.16;31268747;28;20029;-84
2024/02/05 06:05:05;;;;;;;7.47;3.10;;;;;;;7.66;100.00;98601.69;31257828;28;20042;-81
2024/02/05 06:20:12;;;;;;;15.10;6.33;;;;;;;7.69;100.00;98608.94;31265700;28;20049;-85
2024/02/05 06:35:18;;;;;;;7.70;4.00;;;;;;;8.27;100.00;98608.56;31296116;28;20057;-84
2024/02/05 06:50:21;;;;;;;12.10;4.83;;;;;;;8.40;100.00;98595.78;31266574;28;20068;-82
2024/02/05 07:05:23;;;;;;;8.20;4.53;;;;;;;7.55;100.00;98565.41;31243693;28;20053;-82
2024/02/05 07:20:25;;;;;;;8.00;4.43;;;;;;;8.61;100.00;98523.19;31267265;28;20107;-85
2024/02/05 07:35:30;;;;;;;10.30;3.93;;;;;;;12.11;100.00;98532.72;31304024;28;20045;-85
2024/02/05 07:50:32;;;;;;;5.87;3.70;;;;;;;12.72;100.00;98500.41;31285836;28;20045;-81
2024/02/05 08:05:34;;;;;;;10.10;4.07;;;;;;;14.64;100.00;98477.19;31295940;28;20056;-83
2024/02/05 08:20:37;;;;;;;5.97;2.80;;;;;;;13.64;100.00;98482.41;31263535;28;20061;-90
2024/02/05 08:35:40;;;;;;;4.70;3.37;;;;;;;15.35;100.00;98458.28;31302282;28;20056;-84
2024/02/05 08:50:42;;;;;;;7.27;3.23;;;;;;;15.44;83.05;98451.84;31270327;28;20046;-82
2024/02/05 09:05:44;;;;;;;3.93;1.80;;;;;;;16.95;67.57;98444.63;31288753;28;20046;-86
2024/02/05 09:20:48;;;;;;;5.20;2.00;;;;;;;17.04;63.52;98438.88;31279765;28;20109;-86
2024/02/05 09:35:50;;;;;;;3.03;1.43;;;;;;;14.48;76.33;98423.19;31276860;28;20096;-85
2024/02/05 09:50:52;;;;;;;6.27;2.17;;;;;;;14.41;81.00;98404.53;31279964;28;20053;-83
2024/02/05 10:06:03;;;;;;;3.67;1.83;;;;;;;13.40;93.30;98396.59;31297200;28;20392;-84
2024/02/05 10:21:05;;;;;;;7.47;2.13;;;;;;;13.02;92.69;98356.72;31270630;28;20053;-83
2024/02/05 10:36:08;;;;;;;4.53;2.17;;;;;;;12.83;91.71;98337.16;31279797;28;20053;-82
2024/02/05 10:51:11;;;;;;;3.67;2.00;;;;;;;11.47;100.00;98313.06;31262614;28;20057;-82
2024/02/05 11:06:16;;;;;;;4.00;2.03;;;;;;;11.36;100.00;98296.53;31288168;28;20067;-81
2024/02/05 11:21:24;;;;;;;4.83;2.00;;;;;;;11.45;100.00;98282.88;31295842;28;20065;-82
2024/02/05 11:36:27;;;;;;;4.90;2.10;;;;;;;11.68;100.00;98260.28;31318198;28;20057;-83
2024/02/05 11:51:30;;;;;;;3.40;1.60;;;;;;;11.33;100.00;98226.88;31313495;28;20395;-82
2024/02/05 12:06:34;;;;;;;6.70;1.90;;;;;;;11.51;100.00;98183.19;31327742;28;20057;-86
2024/02/05 12:21:36;;;;;;;4.20;1.77;;;;;;;10.89;100.00;98190.28;31307284;28;20058;-83
2024/02/05 12:36:40;;;;;;;3.67;1.80;;;;;;;10.86;100.00;98169.53;31279962;28;20042;-85
2024/02/05 12:51:42;;;;;;;1.97;1.60;;;;;;;10.45;100.00;98163.06;31303374;28;20053;-86
2024/02/05 13:06:44;;;;;;;2.57;1.90;;;;;;;10.45;100.00;98149.50;31305321;28;20056;-90
2024/02/05 13:21:47;;;;;;;5.10;1.87;;;;;;;10.35;100.00;98120.22;31303950;28;20049;-87
2024/02/05 13:36:49;;;;;;;6.27;2.83;;;;;;;10.51;100.00;98117.06;31295581;28;20033;-89
2024/02/05 13:51:51;;;;;;;3.13;2.40;;;;;;;10.12;100.00;98114.34;31291500;28;20049;-83
2024/02/05 14:06:55;;;;;;;4.50;1.87;;;;;;;9.60;100.00;98079.72;31306596;28;20057;-86
2024/02/05 14:21:57;;;;;;;4.07;2.30;;;;;;;9.39;100.00;98024.63;31295514;28;20045;-84
2024/02/05 14:37:00;;;;;;;1.80;1.50;;;;;;;9.18;100.00;98008.19;31308532;28;20057;-91
2024/02/05 14:52:13;;;;;;;3.13;1.77;;;;;;;9.22;100.00;97970.84;31362133;28;20060;-91
2024/02/05 15:07:21;;;;;;;1.23;0.90;;;;;;;8.09;100.00;98154.38;31055690;28;20064;-85
2024/02/05 15:22:24;;;;;;;0.83;0.83;;;;;;;6.49;100.00;98176.53;31106919;28;20048;-85
2024/02/05 15:37:26;;;;;;;0.60;0.60;;;;;;;5.83;100.00;98187.09;31296769;28;20479;-85
2024/02/05 15:52:33;;;;;;;0.83;0.63;;;;;;;5.83;100.00;98195.16;31301969;28;20199;-86
2024/02/05 16:07:35;;;;;;;0.70;0.70;;;;;;;5.91;100.00;98122.25;31317585;28;20126;-86
2024/02/05 16:22:44;;;;;;;0.77;0.70;;;;;;;5.92;100.00;98104.91;31309099;28;20065;-87
2024/02/05 16:38:00;;;;;;;0.87;0.87;;;;;;;6.09;100.00;98127.81;31332775;28;20050;-88
2024/02/05 16:53:04;;;;;;;0.93;0.87;;;;;;;5.73;100.00;98198.94;31323801;28;20152;-88
2024/02/05 17:08:08;;;;;;;2.40;0.97;;;;;;;6.04;100.00;98228.78;31310727;28;20050;-85
2024/02/05 17:23:11;;;;;;;1.07;0.80;;;;;;;6.24;100.00;98247.41;31306891;28;20089;-87
2024/02/05 17:38:13;;;;;;;1.67;1.03;;;;;;;6.23;100.00;98239.75;31316065;28;20073;-87
2024/02/05 17:53:16;;;;;;;2.53;1.07;;;;;;;6.16;100.00;98238.03;31311567;28;20497;-87
2024/02/05 18:08:20;;;;;;;1.03;0.83;;;;;;;6.19;100.00;98261.41;31360271;28;20042;-89
2024/02/05 18:23:23;;;;;;;0.70;0.70;;;;;;;6.20;100.00;98276.41;31303255;28;20049;-86
2024/02/05 18:38:25;;;;;;;2.30;1.07;;;;;;;6.23;100.00;98288.25;31294193;28;20033;-87
2024/02/05 18:53:27;;;;;;;0.93;0.83;;;;;;;6.14;100.00;98307.78;31305555;22;20046;-79
2024/02/05 19:08:29;;;;;;;1.07;0.90;;;;;;;6.07;100.00;98340.31;31246665;28;20541;-83
2024/02/05 19:23:31;;;;;;;8.43;1.93;;;;;;;6.08;100.00;98353.34;31236442;28;20507;-79
2024/02/05 19:38:33;;;;;;;4.17;1.70;;;;;;;5.98;100.00;98364.44;31259702;28;20084;-79
2024/02/05 19:53:35;;;;;;;2.60;1.10;;;;;;;5.90;100.00;98368.53;31268875;28;20067;-77
2024/02/05 20:08:39;;;;;;;1.27;1.00;;;;;;;5.81;100.00;98372.56;31247842;28;20132;-78
2024/02/05 20:23:41;;;;;;;3.03;1.40;;;;;;;6.03;100.00;98391.59;31246235;28;20136;-77
2024/02/05 20:38:43;;;;;;;1.63;1.30;;;;;;;5.95;100.00;98403.00;31251160;28;20049;-76
2024/02/05 20:53:46;;;;;;;2.30;1.63;;;;;;;5.94;100.00;98450.72;31225635;28;20089;-76
2024/02/05 21:08:48;;;;;;;2.00;1.27;;;;;;;5.80;100.00;98478.75;31256175;28;20087;-75
2024/02/05 21:23:50;;;;;;;2.10;1.47;;;;;;;5.74;100.00;98501.25;31242095;28;20075;-77
2024/02/05 21:38:52;;;;;;;1.97;1.37;;;;;;;5.77;100.00;98522.69;31240738;28;20136;-78
2024/02/05 21:53:54;;;;;;;2.43;1.57;;;;;;;5.85;100.00;98544.06;31232629;28;20475;-77
2024/02/05 22:08:56;;;;;;;1.70;1.60;;;;;;;6.00;100.00;98570.22;31231658;28;20511;-78
2024/02/05 22:23:58;;;;;;;2.87;1.90;;;;;;;6.02;100.00;98575.19;31251635;28;20053;-79
2024/02/05 22:39:01;;;;;;;2.77;1.90;;;;;;;6.08;100.00;98590.44;31237010;28;20042;-76
2024/02/05 22:54:05;;;;;;;4.17;2.10;;;;;;;6.11;100.00;98605.00;31235211;28;20144;-76
2024/02/05 23:09:07;;;;;;;7.93;1.57;;;;;;;6.32;100.00;98642.16;31243031;28;20045;-79
2024/02/05 23:24:10;;;;;;;4.40;2.10;;;;;;;6.45;100.00;98683.41;31262630;28;20452;-78
2024/02/05 23:39:13;;;;;;;7.10;2.57;;;;;;;6.40;100.00;98718.94;31257781;28;20092;-78
2024/02/05 23:54:15;;;;;;;5.43;2.13;;;;;;;6.54;100.00;98715.16;31269166;28;20064;-78
